Αναφορές METAR Αεροδρομίων

 

LGTS - THESSALONIKI - GREECE
Ενημερώθηκε: 16/08/2022 03:20
Αίθριος
Αίθριος
 Ανεμος από Α
Ανεμος: Α 11 km/h
Θερμοκρασία: 21°C
Σημείο Δρόσου: 17°C
Υγρασία: 78%
Βαρόμετρο: 1010 hPa
Περίληψη: Αίθριος
Visibility: greater than 10 km
2022/08/16 00:20 LGTS 160020Z 10006KT 080V140 CAVOK 21/17 Q1010 NOSIG
LGLR - LARTISA - GREECE
Ενημερώθηκε: 16/08/2022 02:50
Αίθριος
Αίθριος
 Ανεμος από calm
Ανεμος: Απνοια
Θερμοκρασία: 22°C
Σημείο Δρόσου: 17°C
Υγρασία: 73%
Βαρόμετρο: 1010 hPa
Περίληψη: Αίθριος
Visibility: greater than 10 km
2022/08/15 23:50 LGLR 152350Z 00000KT CAVOK 22/17 Q1010 BLU
 
LGKZ - KOZANI - GREECE
Ενημερώθηκε: 15/08/2022 14:50
NOT Current
Μερικώς νεφελώδης
Μερικώς νεφελώδης
 Ανεμος από ΒΒΔ
Ανεμος: ΒΒΔ 15 km/h
Θερμοκρασία: 27°C
Σημείο Δρόσου: 7°C
Υγρασία: 28%
Βαρόμετρο: 1011 hPa
Clouds: Μερικώς νεφελώδης
Visibility: 10 km
Cloud details: Αραιές Νεφώσεις 762 m
Μερικώς νεφελώδης 2134 m
2022/08/15 11:50 LGKZ 151150Z 34008KT 9999 FEW025 SCT070 27/07 Q1011
LGKV - KAVALA - GREECE
Ενημερώθηκε: 15/08/2022 22:20
NOT Current
Αίθριος
Αίθριος
 Ανεμος από ΒΔ
Ανεμος: ΒΔ 7 km/h
Θερμοκρασία: 23°C
Σημείο Δρόσου: 21°C
Υγρασία: 89%
Βαρόμετρο: 1008 hPa
Περίληψη: Αίθριος
Visibility: greater than 10 km
2022/08/15 19:20 LGKV 151920Z 32004KT CAVOK 23/21 Q1008
 
LGIO - IOANNINA - GREECE
Ενημερώθηκε: 16/08/2022 03:20

 Ανεμος από varies
Ανεμος: varies 2 km/h
Θερμοκρασία: 16°C
Σημείο Δρόσου: 14°C
Υγρασία: 88%
Βαρόμετρο: 1015 hPa
2022/08/16 00:20 LGIO 160020Z AUTO VRB01KT //// // ////// 16/14 Q1015 RE//
LGBL - BOLOS - GREECE
Ενημερώθηκε: 16/08/2022 02:50
Αίθριος
Αίθριος
 Ανεμος από calm
Ανεμος: Απνοια
Θερμοκρασία: 20°C
Σημείο Δρόσου: 16°C
Υγρασία: 78%
Βαρόμετρο: 1010 hPa
Περίληψη: Αίθριος
Visibility: greater than 10 km
2022/08/15 23:50 LGBL 152350Z 00000KT CAVOK 20/16 Q1010
 
LGMT - MITILINI - GREECE
Ενημερώθηκε: 15/08/2022 23:50
NOT Current
Αίθριος
Αίθριος
 Ανεμος από varies
Ανεμος: varies 2 km/h
Θερμοκρασία: 25°C
Σημείο Δρόσου: 19°C
Υγρασία: 69%
Βαρόμετρο: 1010 hPa
Περίληψη: Αίθριος
Visibility: greater than 10 km
2022/08/15 20:50 LGMT 152050Z VRB01KT CAVOK 25/19 Q1010
LGAV - ATHENS - GREECE
Ενημερώθηκε: 16/08/2022 03:20
Αίθριος
Αίθριος
 Ανεμος από Δ
Ανεμος: Δ 6 km/h
Θερμοκρασία: 21°C
Σημείο Δρόσου: 15°C
Υγρασία: 69%
Βαρόμετρο: 1011 hPa
Περίληψη: Αίθριος
Visibility: greater than 10 km
2022/08/16 00:20 LGAV 160020Z 26003KT CAVOK 21/15 Q1011 NOSIG
 
LGRP - RODOS - GREECE
Ενημερώθηκε: 16/08/2022 03:20
Αραιές Νεφώσεις
Αραιές Νεφώσεις
 Ανεμος από ΝΔ
Ανεμος: ΝΔ 13 km/h
Θερμοκρασία: 25°C
Σημείο Δρόσου: 21°C
Υγρασία: 79%
Βαρόμετρο: 1008 hPa
Clouds: Αραιές Νεφώσεις
Visibility: 10 km
Cloud details: Αραιές Νεφώσεις 549 m
2022/08/16 00:20 LGRP 160020Z 23007KT 9999 FEW018 25/21 Q1008 NOSIG
LGIR - HRAKLIO/KRITI - GREECE
Ενημερώθηκε: 16/08/2022 03:20
Αίθριος
Αίθριος
 Ανεμος από Ν
Ανεμος: Ν 11 km/h
Θερμοκρασία: 21°C
Σημείο Δρόσου: 17°C
Υγρασία: 78%
Βαρόμετρο: 1011 hPa
Περίληψη: Αίθριος
Visibility: greater than 10 km
2022/08/16 00:20 LGIR 160020Z 17006KT CAVOK 21/17 Q1011 NOSIG
 
LGMK - MIKONOS - GREECE
Ενημερώθηκε: 16/08/2022 03:20
Αίθριος
Αίθριος
 Ανεμος από ΒΔ
Ανεμος: ΒΔ 9 km/h
Θερμοκρασία: 24°C
Σημείο Δρόσου: 17°C
Υγρασία: 65%
Βαρόμετρο: 1010 hPa
Περίληψη: Αίθριος
Visibility: greater than 10 km
2022/08/16 00:20 LGMK 160020Z 32005KT CAVOK 24/17 Q1010
LGKR - KERKIRA - GREECE
Ενημερώθηκε: 16/08/2022 03:20
Αίθριος
Αίθριος
 Ανεμος από calm
Ανεμος: Απνοια
Θερμοκρασία: 23°C
Σημείο Δρόσου: 20°C
Υγρασία: 83%
Βαρόμετρο: 1011 hPa
Περίληψη: Αίθριος
Visibility: greater than 10 km
2022/08/16 00:20 LGKR 160020Z 00000KT CAVOK 23/20 Q1011 NOSIG